Glenwood Springs, CO (81601)

4:41 AM MDT on May 06, 2015 (GMT -0600)
Elk Springs | | Change Station
CLOSE
Current Station
Personal Weather Station
Location: Glenwood Springs, CO
Elevation: 6988 ft
Nearby Weather Stations

Elev 6988 ft 39.48 °N, 107.25 °W | Updated 13 minutes ago

Rain
Rain
39.2 °F
Feels Like 35 °F
N
5.3
Wind Variable Wind from ESE

Today
High -- | Low -- °F
--% Chance of Precip.
Yesterday
High -- | Low -- °F
Precip. -- in
6:04 AM 8:07 PM
Waning Gibbous, 94% visible
Pressure 29.82 in
Visibility 4.0 miles
Clouds Few 1700 ft
Mostly Cloudy 3500 ft
Overcast 4600 ft
Windchill 35 °F
Dew Point 39 °F
Humidity 99%
Rainfall 0.30 in
Snow Depth Not available.
UV 0 out of 12
Pollen 7.70 out of 12
Air Quality Not available.
Flu Activity Sporadic
METAR KRIL 061004Z AUTO 00000KT 4SM -RA BR FEW017 BKN035 OVC046 09/07 A2982 RMK AO2 P0002 T00890072

More Conditions Fewer Conditions

Pressure 29.82 in
Visibility 4.0 miles
Clouds Few 1700 ft
Mostly Cloudy 3500 ft
Overcast 4600 ft
Windchill 35 °F
Dew Point 39 °F
Humidity 99%
Rainfall 0.30 in
Snow Depth Not available.
UV 0 out of 12
Pollen 7.70 out of 12
Air Quality Not available.
Flu Activity Sporadic
METAR KRIL 061004Z AUTO 00000KT 4SM -RA BR FEW017 BKN035 OVC046 09/07 A2982 RMK AO2 P0002 T00890072

More Conditions Fewer Conditions

10-Day Weather Forecast

Almanac

Astronomy

May. 06, 2015 Rise Set
Actual Time
Civil Twilight
Nautical Twilight
Astronomical Twilight
Moon
Length of Visible Light
Length of Day
Tomorrow will be .
, % of the Moon is Illuminated

Today's Extremes

State Highs State Lows

Community

WunderPhotos

Upload Photos

1,818,859 photos uploaded!

WunderBlogs® & News

Nearby

Air Quality

  Air Quality AQ Index Pollutant
Not available.

Snow Depth

Station Depth Elevation

Earthquake Activity

City Distance Mag. Time & Date
Minimum magnitude displayed is 2.5.

Coastal Water Temperatures

Place Temperature

Stations

Nearby Weather Stations

Station Location Temp. Windchill Dew Point Humidity Wind Precip. Elev Updated Type